sensor_id;sensor_type;location;lat;lon;timestamp;P1;durP1;ratioP1;P2;durP2;ratioP2
13975;SDS011;7062;49.792;9.946;2022-09-01T00:00:01;1.73;;;1.10;;
13975;SDS011;7062;49.792;9.946;2022-09-01T00:02:33;3.13;;;1.27;;
13975;SDS011;7062;49.792;9.946;2022-09-01T00:04:59;1.27;;;1.07;;
13975;SDS011;7062;49.792;9.946;2022-09-01T00:07:26;2.87;;;1.30;;
13975;SDS011;7062;49.792;9.946;2022-09-01T00:09:56;2.47;;;1.60;;
13975;SDS011;7062;49.792;9.946;2022-09-01T00:12:22;1.60;;;1.30;;
13975;SDS011;7062;49.792;9.946;2022-09-01T00:14:49;1.70;;;1.30;;
13975;SDS011;7062;49.792;9.946;2022-09-01T00:17:15;1.57;;;1.40;;
13975;SDS011;7062;49.792;9.946;2022-09-01T00:19:41;1.87;;;1.50;;
13975;SDS011;7062;49.792;9.946;2022-09-01T00:22:06;2.67;;;1.70;;
13975;SDS011;7062;49.792;9.946;2022-09-01T00:24:33;1.30;;;1.20;;
13975;SDS011;7062;49.792;9.946;2022-09-01T00:26:59;4.13;;;1.40;;
13975;SDS011;7062;49.792;9.946;2022-09-01T00:29:25;2.17;;;1.57;;
13975;SDS011;7062;49.792;9.946;2022-09-01T00:31:51;2.73;;;1.30;;
13975;SDS011;7062;49.792;9.946;2022-09-01T00:34:17;2.33;;;1.83;;
13975;SDS011;7062;49.792;9.946;2022-09-01T00:36:44;2.73;;;1.70;;
13975;SDS011;7062;49.792;9.946;2022-09-01T00:39:09;1.67;;;1.30;;
13975;SDS011;7062;49.792;9.946;2022-09-01T00:41:36;3.53;;;2.10;;
13975;SDS011;7062;49.792;9.946;2022-09-01T00:44:09;3.43;;;1.60;;
13975;SDS011;7062;49.792;9.946;2022-09-01T00:46:42;3.43;;;1.50;;
13975;SDS011;7062;49.792;9.946;2022-09-01T00:49:17;2.03;;;1.43;;
13975;SDS011;7062;49.792;9.946;2022-09-01T00:51:49;1.87;;;1.53;;
13975;SDS011;7062;49.792;9.946;2022-09-01T00:54:19;2.57;;;1.73;;
13975;SDS011;7062;49.792;9.946;2022-09-01T00:56:48;2.97;;;1.83;;
13975;SDS011;7062;49.792;9.946;2022-09-01T00:59:14;2.47;;;1.80;;
13975;SDS011;7062;49.792;9.946;2022-09-01T01:01:43;2.10;;;1.57;;
13975;SDS011;7062;49.792;9.946;2022-09-01T01:04:08;2.53;;;1.60;;
13975;SDS011;7062;49.792;9.946;2022-09-01T01:06:39;1.50;;;1.40;;
13975;SDS011;7062;49.792;9.946;2022-09-01T01:09:13;1.60;;;1.30;;
13975;SDS011;7062;49.792;9.946;2022-09-01T01:11:42;3.37;;;1.83;;
13975;SDS011;7062;49.792;9.946;2022-09-01T01:14:12;2.57;;;1.87;;
13975;SDS011;7062;49.792;9.946;2022-09-01T01:16:42;1.73;;;1.60;;
13975;SDS011;7062;49.792;9.946;2022-09-01T01:22:03;4.30;;;2.00;;
13975;SDS011;7062;49.792;9.946;2022-09-01T01:25:07;1.90;;;1.60;;
13975;SDS011;7062;49.792;9.946;2022-09-01T01:27:37;3.17;;;1.90;;
13975;SDS011;7062;49.792;9.946;2022-09-01T01:30:07;2.30;;;1.70;;
13975;SDS011;7062;49.792;9.946;2022-09-01T01:32:35;1.40;;;1.30;;
13975;SDS011;7062;49.792;9.946;2022-09-01T01:35:01;1.73;;;1.37;;
13975;SDS011;7062;49.792;9.946;2022-09-01T01:37:30;2.67;;;1.87;;
13975;SDS011;7062;49.792;9.946;2022-09-01T01:39:59;3.27;;;2.33;;
13975;SDS011;7062;49.792;9.946;2022-09-01T01:42:25;3.37;;;1.60;;
13975;SDS011;7062;49.792;9.946;2022-09-01T01:44:52;2.93;;;1.60;;
13975;SDS011;7062;49.792;9.946;2022-09-01T01:47:18;4.17;;;2.10;;
13975;SDS011;7062;49.792;9.946;2022-09-01T01:49:44;2.90;;;2.03;;
13975;SDS011;7062;49.792;9.946;2022-09-01T01:52:10;2.73;;;1.97;;
13975;SDS011;7062;49.792;9.946;2022-09-01T01:54:40;4.67;;;2.73;;
13975;SDS011;7062;49.792;9.946;2022-09-01T01:57:07;7.40;;;2.93;;
13975;SDS011;7062;49.792;9.946;2022-09-01T01:59:33;3.00;;;2.47;;
13975;SDS011;7062;49.792;9.946;2022-09-01T02:01:59;4.70;;;2.10;;
13975;SDS011;7062;49.792;9.946;2022-09-01T02:04:33;6.00;;;2.07;;
13975;SDS011;7062;49.792;9.946;2022-09-01T02:06:59;2.37;;;1.67;;
13975;SDS011;7062;49.792;9.946;2022-09-01T02:09:25;4.17;;;2.60;;
13975;SDS011;7062;49.792;9.946;2022-09-01T02:11:51;3.30;;;2.30;;
13975;SDS011;7062;49.792;9.946;2022-09-01T02:14:21;3.00;;;1.97;;
13975;SDS011;7062;49.792;9.946;2022-09-01T02:16:47;4.50;;;2.20;;
13975;SDS011;7062;49.792;9.946;2022-09-01T02:19:13;4.03;;;1.90;;
13975;SDS011;7062;49.792;9.946;2022-09-01T02:21:43;3.87;;;1.70;;
13975;SDS011;7062;49.792;9.946;2022-09-01T02:24:18;2.00;;;1.70;;
13975;SDS011;7062;49.792;9.946;2022-09-01T02:26:44;3.17;;;2.10;;
13975;SDS011;7062;49.792;9.946;2022-09-01T02:29:13;2.47;;;1.80;;
13975;SDS011;7062;49.792;9.946;2022-09-01T02:31:47;2.90;;;1.67;;
13975;SDS011;7062;49.792;9.946;2022-09-01T02:34:16;1.80;;;1.47;;
13975;SDS011;7062;49.792;9.946;2022-09-01T02:36:44;1.77;;;1.40;;
13975;SDS011;7062;49.792;9.946;2022-09-01T02:39:13;1.93;;;1.60;;
13975;SDS011;7062;49.792;9.946;2022-09-01T02:41:44;2.23;;;1.40;;
13975;SDS011;7062;49.792;9.946;2022-09-01T02:44:10;4.20;;;1.80;;
13975;SDS011;7062;49.792;9.946;2022-09-01T02:46:40;2.83;;;1.70;;
13975;SDS011;7062;49.792;9.946;2022-09-01T02:49:08;1.53;;;1.27;;
13975;SDS011;7062;49.792;9.946;2022-09-01T02:51:39;2.73;;;1.53;;
13975;SDS011;7062;49.792;9.946;2022-09-01T02:54:06;4.17;;;1.43;;
13975;SDS011;7062;49.792;9.946;2022-09-01T02:56:32;2.57;;;1.70;;
13975;SDS011;7062;49.792;9.946;2022-09-01T02:58:57;2.90;;;2.43;;
13975;SDS011;7062;49.792;9.946;2022-09-01T03:01:26;3.47;;;1.60;;
13975;SDS011;7062;49.792;9.946;2022-09-01T03:03:56;3.00;;;1.50;;
13975;SDS011;7062;49.792;9.946;2022-09-01T03:06:24;2.40;;;1.50;;
13975;SDS011;7062;49.792;9.946;2022-09-01T03:08:51;3.37;;;2.03;;
13975;SDS011;7062;49.792;9.946;2022-09-01T03:11:19;2.07;;;1.67;;
13975;SDS011;7062;49.792;9.946;2022-09-01T03:13:47;4.33;;;1.70;;
13975;SDS011;7062;49.792;9.946;2022-09-01T03:16:13;2.73;;;1.97;;
13975;SDS011;7062;49.792;9.946;2022-09-01T03:18:40;3.30;;;1.57;;
13975;SDS011;7062;49.792;9.946;2022-09-01T03:21:07;5.23;;;1.80;;
13975;SDS011;7062;49.792;9.946;2022-09-01T03:23:33;5.33;;;1.87;;
13975;SDS011;7062;49.792;9.946;2022-09-01T03:26:01;2.03;;;1.53;;
13975;SDS011;7062;49.792;9.946;2022-09-01T03:28:27;2.97;;;1.60;;
13975;SDS011;7062;49.792;9.946;2022-09-01T03:30:55;1.50;;;1.37;;
13975;SDS011;7062;49.792;9.946;2022-09-01T03:33:22;6.20;;;2.13;;
13975;SDS011;7062;49.792;9.946;2022-09-01T03:35:51;4.40;;;1.90;;
13975;SDS011;7062;49.792;9.946;2022-09-01T03:38:18;2.00;;;1.80;;
13975;SDS011;7062;49.792;9.946;2022-09-01T03:40:52;2.67;;;2.00;;
13975;SDS011;7062;49.792;9.946;2022-09-01T03:43:23;2.77;;;1.90;;
13975;SDS011;7062;49.792;9.946;2022-09-01T03:45:51;2.37;;;1.70;;
13975;SDS011;7062;49.792;9.946;2022-09-01T03:48:19;2.73;;;2.03;;
13975;SDS011;7062;49.792;9.946;2022-09-01T03:50:45;2.90;;;1.70;;
13975;SDS011;7062;49.792;9.946;2022-09-01T03:53:16;2.53;;;1.63;;
13975;SDS011;7062;49.792;9.946;2022-09-01T03:55:45;2.17;;;1.70;;
13975;SDS011;7062;49.792;9.946;2022-09-01T03:58:13;2.27;;;1.87;;
13975;SDS011;7062;49.792;9.946;2022-09-01T04:00:43;2.80;;;2.07;;
13975;SDS011;7062;49.792;9.946;2022-09-01T04:03:12;2.20;;;2.00;;
13975;SDS011;7062;49.792;9.946;2022-09-01T04:05:43;3.37;;;2.67;;
13975;SDS011;7062;49.792;9.946;2022-09-01T04:08:10;2.27;;;1.80;;
13975;SDS011;7062;49.792;9.946;2022-09-01T04:10:40;2.33;;;2.07;;
13975;SDS011;7062;49.792;9.946;2022-09-01T04:13:17;1.77;;;1.60;;
13975;SDS011;7062;49.792;9.946;2022-09-01T04:15:43;2.53;;;2.33;;
13975;SDS011;7062;49.792;9.946;2022-09-01T04:18:09;4.50;;;2.73;;
13975;SDS011;7062;49.792;9.946;2022-09-01T04:20:37;3.73;;;2.67;;
13975;SDS011;7062;49.792;9.946;2022-09-01T04:23:12;3.73;;;2.77;;
13975;SDS011;7062;49.792;9.946;2022-09-01T04:25:41;2.53;;;2.33;;
13975;SDS011;7062;49.792;9.946;2022-09-01T04:28:06;2.53;;;2.00;;
13975;SDS011;7062;49.792;9.946;2022-09-01T04:30:41;4.37;;;2.40;;
13975;SDS011;7062;49.792;9.946;2022-09-01T04:33:07;4.43;;;2.40;;
13975;SDS011;7062;49.792;9.946;2022-09-01T04:35:38;3.70;;;2.40;;
13975;SDS011;7062;49.792;9.946;2022-09-01T04:38:04;3.10;;;2.30;;
13975;SDS011;7062;49.792;9.946;2022-09-01T04:40:32;3.70;;;2.40;;
13975;SDS011;7062;49.792;9.946;2022-09-01T04:43:05;3.20;;;2.37;;
13975;SDS011;7062;49.792;9.946;2022-09-01T04:45:32;5.33;;;3.13;;
13975;SDS011;7062;49.792;9.946;2022-09-01T04:48:00;5.03;;;3.23;;
13975;SDS011;7062;49.792;9.946;2022-09-01T04:50:27;2.70;;;2.47;;
13975;SDS011;7062;49.792;9.946;2022-09-01T04:52:56;3.20;;;2.53;;
13975;SDS011;7062;49.792;9.946;2022-09-01T04:55:24;4.27;;;2.30;;
13975;SDS011;7062;49.792;9.946;2022-09-01T04:57:52;3.07;;;2.30;;
13975;SDS011;7062;49.792;9.946;2022-09-01T05:00:19;6.80;;;2.60;;
13975;SDS011;7062;49.792;9.946;2022-09-01T05:02:52;2.30;;;2.07;;
13975;SDS011;7062;49.792;9.946;2022-09-01T05:05:34;3.67;;;2.20;;
13975;SDS011;7062;49.792;9.946;2022-09-01T05:08:04;6.40;;;2.20;;
13975;SDS011;7062;49.792;9.946;2022-09-01T05:10:31;2.87;;;2.53;;
13975;SDS011;7062;49.792;9.946;2022-09-01T05:12:57;2.27;;;1.83;;
13975;SDS011;7062;49.792;9.946;2022-09-01T05:15:22;3.13;;;2.60;;
13975;SDS011;7062;49.792;9.946;2022-09-01T05:17:48;2.77;;;2.37;;
13975;SDS011;7062;49.792;9.946;2022-09-01T05:20:19;2.73;;;2.53;;
13975;SDS011;7062;49.792;9.946;2022-09-01T05:22:45;4.97;;;2.60;;
13975;SDS011;7062;49.792;9.946;2022-09-01T05:25:11;4.57;;;3.37;;
13975;SDS011;7062;49.792;9.946;2022-09-01T05:27:40;5.60;;;2.47;;
13975;SDS011;7062;49.792;9.946;2022-09-01T05:30:06;2.53;;;2.33;;
13975;SDS011;7062;49.792;9.946;2022-09-01T05:32:36;2.93;;;2.43;;
13975;SDS011;7062;49.792;9.946;2022-09-01T05:35:03;4.57;;;2.63;;
13975;SDS011;7062;49.792;9.946;2022-09-01T05:37:32;4.20;;;2.47;;
13975;SDS011;7062;49.792;9.946;2022-09-01T05:40:02;2.33;;;2.13;;
13975;SDS011;7062;49.792;9.946;2022-09-01T05:42:33;2.30;;;1.97;;
13975;SDS011;7062;49.792;9.946;2022-09-01T05:45:04;3.20;;;2.37;;
13975;SDS011;7062;49.792;9.946;2022-09-01T05:47:31;2.97;;;2.13;;
13975;SDS011;7062;49.792;9.946;2022-09-01T05:50:01;2.70;;;2.50;;
13975;SDS011;7062;49.792;9.946;2022-09-01T05:52:28;3.90;;;2.30;;
13975;SDS011;7062;49.792;9.946;2022-09-01T05:54:58;2.90;;;2.27;;
13975;SDS011;7062;49.792;9.946;2022-09-01T05:57:24;4.10;;;2.10;;
13975;SDS011;7062;49.792;9.946;2022-09-01T05:59:49;4.87;;;2.87;;
13975;SDS011;7062;49.792;9.946;2022-09-01T06:02:18;4.40;;;2.47;;
13975;SDS011;7062;49.792;9.946;2022-09-01T06:04:45;3.20;;;2.20;;
13975;SDS011;7062;49.792;9.946;2022-09-01T06:07:12;4.67;;;2.23;;
13975;SDS011;7062;49.792;9.946;2022-09-01T06:09:42;2.53;;;2.10;;
13975;SDS011;7062;49.792;9.946;2022-09-01T06:12:10;2.87;;;2.60;;
13975;SDS011;7062;49.792;9.946;2022-09-01T06:14:41;2.43;;;2.23;;
13975;SDS011;7062;49.792;9.946;2022-09-01T06:17:08;7.87;;;3.27;;
13975;SDS011;7062;49.792;9.946;2022-09-01T06:19:35;4.97;;;2.17;;
13975;SDS011;7062;49.792;9.946;2022-09-01T06:22:01;6.17;;;2.67;;
13975;SDS011;7062;49.792;9.946;2022-09-01T06:24:27;2.90;;;2.10;;
13975;SDS011;7062;49.792;9.946;2022-09-01T06:26:53;3.47;;;2.40;;
13975;SDS011;7062;49.792;9.946;2022-09-01T06:29:19;3.97;;;3.17;;
13975;SDS011;7062;49.792;9.946;2022-09-01T06:31:45;3.07;;;2.50;;
13975;SDS011;7062;49.792;9.946;2022-09-01T06:34:11;3.27;;;2.17;;
13975;SDS011;7062;49.792;9.946;2022-09-01T06:36:41;3.27;;;2.67;;
13975;SDS011;7062;49.792;9.946;2022-09-01T06:39:07;2.73;;;2.23;;
13975;SDS011;7062;49.792;9.946;2022-09-01T06:41:38;2.50;;;2.30;;
13975;SDS011;7062;49.792;9.946;2022-09-01T06:44:03;4.17;;;2.20;;
13975;SDS011;7062;49.792;9.946;2022-09-01T06:46:29;4.30;;;2.73;;
13975;SDS011;7062;49.792;9.946;2022-09-01T06:48:55;3.40;;;2.63;;
13975;SDS011;7062;49.792;9.946;2022-09-01T06:51:24;2.50;;;2.20;;
13975;SDS011;7062;49.792;9.946;2022-09-01T06:53:53;5.43;;;2.40;;
13975;SDS011;7062;49.792;9.946;2022-09-01T06:56:24;3.07;;;2.50;;
13975;SDS011;7062;49.792;9.946;2022-09-01T06:58:52;3.03;;;2.73;;
13975;SDS011;7062;49.792;9.946;2022-09-01T07:01:19;4.17;;;3.77;;
13975;SDS011;7062;49.792;9.946;2022-09-01T07:03:47;2.50;;;2.30;;
13975;SDS011;7062;49.792;9.946;2022-09-01T07:06:15;3.57;;;2.53;;
13975;SDS011;7062;49.792;9.946;2022-09-01T07:08:42;2.20;;;2.00;;
13975;SDS011;7062;49.792;9.946;2022-09-01T07:11:17;4.40;;;2.07;;
13975;SDS011;7062;49.792;9.946;2022-09-01T07:13:49;2.70;;;2.37;;
13975;SDS011;7062;49.792;9.946;2022-09-01T07:16:18;7.13;;;2.83;;
13975;SDS011;7062;49.792;9.946;2022-09-01T07:18:46;4.00;;;2.43;;
13975;SDS011;7062;49.792;9.946;2022-09-01T07:21:12;7.30;;;2.70;;
13975;SDS011;7062;49.792;9.946;2022-09-01T07:23:37;3.30;;;2.53;;
13975;SDS011;7062;49.792;9.946;2022-09-01T07:26:06;4.47;;;2.27;;
13975;SDS011;7062;49.792;9.946;2022-09-01T07:28:32;5.20;;;2.10;;
13975;SDS011;7062;49.792;9.946;2022-09-01T07:30:58;5.03;;;2.67;;
13975;SDS011;7062;49.792;9.946;2022-09-01T07:33:24;2.90;;;1.93;;
13975;SDS011;7062;49.792;9.946;2022-09-01T07:35:51;2.83;;;1.43;;
13975;SDS011;7062;49.792;9.946;2022-09-01T07:38:21;2.10;;;1.47;;
13975;SDS011;7062;49.792;9.946;2022-09-01T07:40:48;3.83;;;1.97;;
13975;SDS011;7062;49.792;9.946;2022-09-01T07:43:19;8.40;;;2.80;;
13975;SDS011;7062;49.792;9.946;2022-09-01T07:45:52;4.03;;;2.40;;
13975;SDS011;7062;49.792;9.946;2022-09-01T07:48:23;2.50;;;2.27;;
13975;SDS011;7062;49.792;9.946;2022-09-01T07:50:52;3.13;;;1.60;;
13975;SDS011;7062;49.792;9.946;2022-09-01T07:53:20;4.20;;;2.23;;
13975;SDS011;7062;49.792;9.946;2022-09-01T07:55:49;6.63;;;1.83;;
13975;SDS011;7062;49.792;9.946;2022-09-01T07:58:16;2.53;;;1.93;;
13975;SDS011;7062;49.792;9.946;2022-09-01T08:00:47;3.47;;;2.10;;
13975;SDS011;7062;49.792;9.946;2022-09-01T08:03:13;6.20;;;1.93;;
13975;SDS011;7062;49.792;9.946;2022-09-01T08:05:40;3.67;;;2.00;;
13975;SDS011;7062;49.792;9.946;2022-09-01T08:08:07;5.17;;;2.77;;
13975;SDS011;7062;49.792;9.946;2022-09-01T08:10:35;3.07;;;2.20;;
13975;SDS011;7062;49.792;9.946;2022-09-01T08:13:03;2.13;;;1.90;;
13975;SDS011;7062;49.792;9.946;2022-09-01T08:15:29;3.10;;;1.70;;
13975;SDS011;7062;49.792;9.946;2022-09-01T08:17:55;8.43;;;2.43;;
13975;SDS011;7062;49.792;9.946;2022-09-01T08:20:20;3.10;;;1.60;;
13975;SDS011;7062;49.792;9.946;2022-09-01T08:22:46;1.53;;;1.43;;
13975;SDS011;7062;49.792;9.946;2022-09-01T08:25:11;4.17;;;2.20;;
13975;SDS011;7062;49.792;9.946;2022-09-01T08:27:37;3.20;;;2.00;;
13975;SDS011;7062;49.792;9.946;2022-09-01T08:30:04;1.83;;;1.60;;
13975;SDS011;7062;49.792;9.946;2022-09-01T08:32:32;2.93;;;1.70;;
13975;SDS011;7062;49.792;9.946;2022-09-01T08:34:59;3.33;;;1.73;;
13975;SDS011;7062;49.792;9.946;2022-09-01T08:37:25;2.43;;;1.87;;
13975;SDS011;7062;49.792;9.946;2022-09-01T08:39:51;4.53;;;2.07;;
13975;SDS011;7062;49.792;9.946;2022-09-01T08:42:20;2.47;;;1.50;;
13975;SDS011;7062;49.792;9.946;2022-09-01T08:44:57;1.67;;;1.57;;
13975;SDS011;7062;49.792;9.946;2022-09-01T08:47:26;2.33;;;1.73;;
13975;SDS011;7062;49.792;9.946;2022-09-01T08:49:52;1.80;;;1.47;;
13975;SDS011;7062;49.792;9.946;2022-09-01T08:52:21;1.70;;;1.60;;
13975;SDS011;7062;49.792;9.946;2022-09-01T08:57:20;2.50;;;1.70;;
13975;SDS011;7062;49.792;9.946;2022-09-01T08:59:58;2.00;;;1.23;;
13975;SDS011;7062;49.792;9.946;2022-09-01T09:16:17;1.60;;;1.47;;
13975;SDS011;7062;49.792;9.946;2022-09-01T09:18:52;2.93;;;1.27;;
13975;SDS011;7062;49.792;9.946;2022-09-01T09:21:32;2.13;;;1.40;;
13975;SDS011;7062;49.792;9.946;2022-09-01T09:29:59;2.40;;;1.10;;
13975;SDS011;7062;49.792;9.946;2022-09-01T09:37:45;1.63;;;1.20;;
13975;SDS011;7062;49.792;9.946;2022-09-01T09:42:40;3.00;;;1.20;;
13975;SDS011;7062;49.792;9.946;2022-09-01T09:45:23;1.57;;;1.23;;
13975;SDS011;7062;49.792;9.946;2022-09-01T09:47:52;2.67;;;1.10;;
13975;SDS011;7062;49.792;9.946;2022-09-01T09:53:15;3.27;;;1.40;;
13975;SDS011;7062;49.792;9.946;2022-09-01T09:56:01;2.17;;;1.07;;
13975;SDS011;7062;49.792;9.946;2022-09-01T09:58:32;1.23;;;1.07;;
13975;SDS011;7062;49.792;9.946;2022-09-01T10:03:46;1.33;;;1.10;;
13975;SDS011;7062;49.792;9.946;2022-09-01T10:08:54;3.47;;;1.20;;
13975;SDS011;7062;49.792;9.946;2022-09-01T10:11:28;3.40;;;1.03;;
13975;SDS011;7062;49.792;9.946;2022-09-01T10:13:55;2.40;;;1.40;;
13975;SDS011;7062;49.792;9.946;2022-09-01T10:16:26;3.70;;;1.23;;
13975;SDS011;7062;49.792;9.946;2022-09-01T10:18:55;1.03;;;0.93;;
13975;SDS011;7062;49.792;9.946;2022-09-01T10:23:57;2.00;;;1.30;;
13975;SDS011;7062;49.792;9.946;2022-09-01T10:26:34;2.27;;;1.50;;
13975;SDS011;7062;49.792;9.946;2022-09-01T10:31:43;1.57;;;1.03;;
13975;SDS011;7062;49.792;9.946;2022-09-01T10:34:18;1.47;;;1.20;;
13975;SDS011;7062;49.792;9.946;2022-09-01T10:36:46;1.07;;;0.97;;
13975;SDS011;7062;49.792;9.946;2022-09-01T10:39:13;1.00;;;0.90;;
13975;SDS011;7062;49.792;9.946;2022-09-01T10:41:50;3.03;;;1.33;;
13975;SDS011;7062;49.792;9.946;2022-09-01T10:46:56;1.87;;;1.00;;
13975;SDS011;7062;49.792;9.946;2022-09-01T10:51:53;1.20;;;1.10;;
13975;SDS011;7062;49.792;9.946;2022-09-01T10:57:11;1.93;;;1.10;;
13975;SDS011;7062;49.792;9.946;2022-09-01T11:00:47;1.03;;;0.93;;
13975;SDS011;7062;49.792;9.946;2022-09-01T11:10:55;1.60;;;1.50;;
13975;SDS011;7062;49.792;9.946;2022-09-01T11:16:34;4.00;;;1.57;;
13975;SDS011;7062;49.792;9.946;2022-09-01T11:21:46;2.07;;;1.10;;
13975;SDS011;7062;49.792;9.946;2022-09-01T11:27:05;2.00;;;1.17;;
13975;SDS011;7062;49.792;9.946;2022-09-01T11:29:52;2.90;;;1.13;;
13975;SDS011;7062;49.792;9.946;2022-09-01T11:32:30;2.27;;;0.90;;
13975;SDS011;7062;49.792;9.946;2022-09-01T11:35:06;3.97;;;0.90;;
13975;SDS011;7062;49.792;9.946;2022-09-01T11:37:42;2.00;;;1.03;;
13975;SDS011;7062;49.792;9.946;2022-09-01T11:40:11;1.30;;;0.77;;
13975;SDS011;7062;49.792;9.946;2022-09-01T11:42:55;3.17;;;0.83;;
13975;SDS011;7062;49.792;9.946;2022-09-01T11:45:26;4.17;;;1.27;;
13975;SDS011;7062;49.792;9.946;2022-09-01T11:48:00;3.40;;;1.40;;
13975;SDS011;7062;49.792;9.946;2022-09-01T11:50:31;3.80;;;1.07;;
13975;SDS011;7062;49.792;9.946;2022-09-01T11:52:59;1.93;;;1.27;;
13975;SDS011;7062;49.792;9.946;2022-09-01T11:58:01;2.63;;;1.30;;
13975;SDS011;7062;49.792;9.946;2022-09-01T12:00:35;2.50;;;1.00;;
13975;SDS011;7062;49.792;9.946;2022-09-01T12:03:09;3.43;;;1.17;;
13975;SDS011;7062;49.792;9.946;2022-09-01T12:05:51;2.43;;;1.20;;
13975;SDS011;7062;49.792;9.946;2022-09-01T12:08:24;1.30;;;1.20;;
13975;SDS011;7062;49.792;9.946;2022-09-01T12:11:28;1.23;;;0.93;;
13975;SDS011;7062;49.792;9.946;2022-09-01T12:14:02;4.23;;;0.83;;
13975;SDS011;7062;49.792;9.946;2022-09-01T12:16:30;1.90;;;0.90;;
13975;SDS011;7062;49.792;9.946;2022-09-01T12:18:59;0.80;;;0.80;;
13975;SDS011;7062;49.792;9.946;2022-09-01T12:21:29;1.23;;;1.03;;
13975;SDS011;7062;49.792;9.946;2022-09-01T12:24:16;2.93;;;1.37;;
13975;SDS011;7062;49.792;9.946;2022-09-01T12:26:44;3.00;;;1.30;;
13975;SDS011;7062;49.792;9.946;2022-09-01T12:29:12;2.47;;;1.50;;
13975;SDS011;7062;49.792;9.946;2022-09-01T12:31:39;3.23;;;1.20;;
13975;SDS011;7062;49.792;9.946;2022-09-01T12:37:11;1.40;;;1.20;;
13975;SDS011;7062;49.792;9.946;2022-09-01T12:39:41;1.93;;;1.77;;
13975;SDS011;7062;49.792;9.946;2022-09-01T12:42:11;1.33;;;1.23;;
13975;SDS011;7062;49.792;9.946;2022-09-01T12:44:50;1.43;;;1.33;;
13975;SDS011;7062;49.792;9.946;2022-09-01T12:50:03;2.23;;;0.90;;
13975;SDS011;7062;49.792;9.946;2022-09-01T12:52:34;1.63;;;1.33;;
13975;SDS011;7062;49.792;9.946;2022-09-01T12:55:11;1.20;;;0.80;;
13975;SDS011;7062;49.792;9.946;2022-09-01T12:57:50;1.30;;;0.80;;
13975;SDS011;7062;49.792;9.946;2022-09-01T13:02:46;2.67;;;1.07;;
13975;SDS011;7062;49.792;9.946;2022-09-01T13:05:21;1.70;;;1.07;;
13975;SDS011;7062;49.792;9.946;2022-09-01T13:08:01;1.80;;;1.30;;
13975;SDS011;7062;49.792;9.946;2022-09-01T13:10:50;5.80;;;1.30;;
13975;SDS011;7062;49.792;9.946;2022-09-01T13:13:25;2.63;;;0.90;;
13975;SDS011;7062;49.792;9.946;2022-09-01T13:15:53;0.97;;;0.87;;
13975;SDS011;7062;49.792;9.946;2022-09-01T13:18:22;1.20;;;1.10;;
13975;SDS011;7062;49.792;9.946;2022-09-01T13:20:50;2.13;;;1.10;;
13975;SDS011;7062;49.792;9.946;2022-09-01T13:23:17;2.17;;;1.03;;
13975;SDS011;7062;49.792;9.946;2022-09-01T13:25:43;2.00;;;1.00;;
13975;SDS011;7062;49.792;9.946;2022-09-01T13:28:10;1.30;;;1.20;;
13975;SDS011;7062;49.792;9.946;2022-09-01T13:30:36;2.53;;;1.00;;
13975;SDS011;7062;49.792;9.946;2022-09-01T13:33:03;3.40;;;1.47;;
13975;SDS011;7062;49.792;9.946;2022-09-01T13:35:29;3.03;;;1.23;;
13975;SDS011;7062;49.792;9.946;2022-09-01T13:37:55;4.73;;;1.30;;
13975;SDS011;7062;49.792;9.946;2022-09-01T13:40:21;4.57;;;1.10;;
13975;SDS011;7062;49.792;9.946;2022-09-01T13:42:48;1.63;;;0.90;;
13975;SDS011;7062;49.792;9.946;2022-09-01T13:45:16;1.60;;;1.20;;
13975;SDS011;7062;49.792;9.946;2022-09-01T13:47:44;2.97;;;1.30;;
13975;SDS011;7062;49.792;9.946;2022-09-01T13:50:12;2.40;;;1.10;;
13975;SDS011;7062;49.792;9.946;2022-09-01T13:52:40;1.37;;;0.90;;
13975;SDS011;7062;49.792;9.946;2022-09-01T13:55:11;1.43;;;1.10;;
13975;SDS011;7062;49.792;9.946;2022-09-01T13:57:39;2.47;;;0.93;;
13975;SDS011;7062;49.792;9.946;2022-09-01T14:00:07;2.27;;;1.40;;
13975;SDS011;7062;49.792;9.946;2022-09-01T14:02:36;0.80;;;0.80;;
13975;SDS011;7062;49.792;9.946;2022-09-01T14:05:03;1.40;;;1.10;;
13975;SDS011;7062;49.792;9.946;2022-09-01T14:07:29;2.20;;;1.03;;
13975;SDS011;7062;49.792;9.946;2022-09-01T14:09:56;3.20;;;1.10;;
13975;SDS011;7062;49.792;9.946;2022-09-01T14:12:21;1.10;;;1.00;;
13975;SDS011;7062;49.792;9.946;2022-09-01T14:14:48;2.43;;;1.17;;
13975;SDS011;7062;49.792;9.946;2022-09-01T14:17:14;5.33;;;1.43;;
13975;SDS011;7062;49.792;9.946;2022-09-01T14:19:40;2.37;;;0.97;;
13975;SDS011;7062;49.792;9.946;2022-09-01T14:22:06;1.83;;;1.30;;
13975;SDS011;7062;49.792;9.946;2022-09-01T14:24:35;1.33;;;1.20;;
13975;SDS011;7062;49.792;9.946;2022-09-01T14:27:01;2.30;;;1.00;;
13975;SDS011;7062;49.792;9.946;2022-09-01T14:29:27;1.17;;;0.97;;
13975;SDS011;7062;49.792;9.946;2022-09-01T14:31:53;2.33;;;1.20;;
13975;SDS011;7062;49.792;9.946;2022-09-01T14:34:21;2.30;;;1.30;;
13975;SDS011;7062;49.792;9.946;2022-09-01T14:36:48;1.67;;;1.03;;
13975;SDS011;7062;49.792;9.946;2022-09-01T14:39:16;4.37;;;1.20;;
13975;SDS011;7062;49.792;9.946;2022-09-01T14:41:41;2.80;;;1.23;;
13975;SDS011;7062;49.792;9.946;2022-09-01T14:44:07;2.10;;;1.10;;
13975;SDS011;7062;49.792;9.946;2022-09-01T14:46:33;5.30;;;1.10;;
13975;SDS011;7062;49.792;9.946;2022-09-01T14:48:59;2.67;;;1.00;;
13975;SDS011;7062;49.792;9.946;2022-09-01T14:51:27;4.33;;;1.13;;
13975;SDS011;7062;49.792;9.946;2022-09-01T14:53:54;1.27;;;1.17;;
13975;SDS011;7062;49.792;9.946;2022-09-01T14:56:21;2.43;;;1.30;;
13975;SDS011;7062;49.792;9.946;2022-09-01T14:58:47;1.57;;;1.07;;
13975;SDS011;7062;49.792;9.946;2022-09-01T15:01:15;3.00;;;1.30;;
13975;SDS011;7062;49.792;9.946;2022-09-01T15:03:42;2.13;;;1.10;;
13975;SDS011;7062;49.792;9.946;2022-09-01T15:06:11;1.00;;;0.90;;
13975;SDS011;7062;49.792;9.946;2022-09-01T15:08:41;2.47;;;1.30;;
13975;SDS011;7062;49.792;9.946;2022-09-01T15:11:08;1.77;;;1.23;;
13975;SDS011;7062;49.792;9.946;2022-09-01T15:13:35;1.50;;;1.00;;
13975;SDS011;7062;49.792;9.946;2022-09-01T15:16:03;1.37;;;1.27;;
13975;SDS011;7062;49.792;9.946;2022-09-01T15:18:28;1.20;;;1.10;;
13975;SDS011;7062;49.792;9.946;2022-09-01T15:20:54;1.03;;;0.90;;
13975;SDS011;7062;49.792;9.946;2022-09-01T15:23:21;1.23;;;1.13;;
13975;SDS011;7062;49.792;9.946;2022-09-01T15:25:50;1.10;;;1.03;;
13975;SDS011;7062;49.792;9.946;2022-09-01T15:28:17;0.90;;;0.90;;
13975;SDS011;7062;49.792;9.946;2022-09-01T15:30:43;1.37;;;0.90;;
13975;SDS011;7062;49.792;9.946;2022-09-01T15:33:10;1.87;;;1.00;;
13975;SDS011;7062;49.792;9.946;2022-09-01T15:35:36;1.17;;;1.07;;
13975;SDS011;7062;49.792;9.946;2022-09-01T15:38:02;1.37;;;1.23;;
13975;SDS011;7062;49.792;9.946;2022-09-01T15:40:29;1.83;;;1.17;;
13975;SDS011;7062;49.792;9.946;2022-09-01T15:42:55;2.27;;;1.20;;
13975;SDS011;7062;49.792;9.946;2022-09-01T15:45:22;2.40;;;2.03;;
13975;SDS011;7062;49.792;9.946;2022-09-01T15:47:49;1.90;;;1.00;;
13975;SDS011;7062;49.792;9.946;2022-09-01T15:50:16;1.40;;;1.10;;
13975;SDS011;7062;49.792;9.946;2022-09-01T15:52:48;2.50;;;1.20;;
13975;SDS011;7062;49.792;9.946;2022-09-01T15:55:16;1.73;;;0.83;;
13975;SDS011;7062;49.792;9.946;2022-09-01T15:57:43;1.23;;;1.07;;
13975;SDS011;7062;49.792;9.946;2022-09-01T16:00:09;1.10;;;1.00;;
13975;SDS011;7062;49.792;9.946;2022-09-01T16:02:35;2.00;;;1.00;;
13975;SDS011;7062;49.792;9.946;2022-09-01T16:05:01;1.77;;;0.87;;
13975;SDS011;7062;49.792;9.946;2022-09-01T16:07:26;1.43;;;0.80;;
13975;SDS011;7062;49.792;9.946;2022-09-01T16:09:52;2.00;;;1.00;;
13975;SDS011;7062;49.792;9.946;2022-09-01T16:12:22;1.30;;;1.20;;
13975;SDS011;7062;49.792;9.946;2022-09-01T16:14:49;1.40;;;1.00;;
13975;SDS011;7062;49.792;9.946;2022-09-01T16:17:25;1.00;;;0.87;;
13975;SDS011;7062;49.792;9.946;2022-09-01T16:20:09;2.27;;;0.70;;
13975;SDS011;7062;49.792;9.946;2022-09-01T16:22:43;1.07;;;0.97;;
13975;SDS011;7062;49.792;9.946;2022-09-01T16:25:29;1.23;;;1.13;;
13975;SDS011;7062;49.792;9.946;2022-09-01T16:27:56;2.10;;;0.90;;
13975;SDS011;7062;49.792;9.946;2022-09-01T16:30:28;1.70;;;0.90;;
13975;SDS011;7062;49.792;9.946;2022-09-01T16:32:55;3.23;;;1.20;;